Time;durP1;ratioP1;P1;durP2;ratioP2;P2;SDS_P1;SDS_P2;PMS_P1;PMS_P2;Temp;Humidity;BMP_temperature;BMP_pressure;BME280_temperature;BME280_humidity;BME280_pressure;Samples;Min_cycle;Max_cycle;Signal;HPM_P1;HPM_P2
2021/10/19 00:04:01;;;;;;;38.10;22.90;;;;;;;6.71;86.48;99683.11;236075;1197;24021;-73
2021/10/19 00:09:05;;;;;;;35.80;21.00;;;;;;;6.72;86.34;99684.71;235738;1197;24193;-73
2021/10/19 00:14:09;;;;;;;39.80;21.50;;;;;;;6.73;86.33;99684.25;235869;1193;24155;-73
2021/10/19 00:19:33;;;;;;;35.70;21.00;;;;;;;6.72;86.24;99690.84;236007;1197;22452;-74
2021/10/19 00:24:37;;;;;;;37.30;21.80;;;;;;;6.71;86.00;99689.80;236062;1190;25394;-73
2021/10/19 00:29:40;;;;;;;32.00;21.40;;;;;;;6.67;86.39;99682.95;236168;1190;24028;-74
2021/10/19 00:34:42;;;;;;;33.30;19.90;;;;;;;6.63;85.94;99678.48;235965;1197;24576;-74
2021/10/19 00:39:46;;;;;;;36.00;20.70;;;;;;;6.59;86.25;99674.53;236051;1190;24580;-74
2021/10/19 00:44:49;;;;;;;32.10;20.40;;;;;;;6.55;86.26;99666.75;236022;1197;24069;-73
2021/10/19 00:49:52;;;;;;;32.80;20.30;;;;;;;6.52;86.29;99662.86;236041;1197;22447;-73
2021/10/19 00:54:55;;;;;;;36.70;21.50;;;;;;;6.52;86.41;99665.95;236115;1190;24040;-74
2021/10/19 00:59:58;;;;;;;32.30;21.80;;;;;;;6.48;85.96;99657.04;236051;1197;22549;-73
2021/10/19 01:05:02;;;;;;;32.20;21.30;;;;;;;6.43;86.15;99656.16;236299;1197;22423;-75
2021/10/19 01:10:06;;;;;;;30.30;21.30;;;;;;;6.40;86.65;99653.17;236007;1197;24083;-75
2021/10/19 01:15:11;;;;;;;33.30;22.20;;;;;;;6.40;86.65;99647.73;236269;1196;24017;-75
2021/10/19 01:20:35;;;;;;;33.50;21.60;;;;;;;6.41;86.96;99646.02;236100;1196;25007;-75
2021/10/19 01:25:37;;;;;;;30.70;19.80;;;;;;;6.44;87.12;99637.59;236145;1198;22992;-75
2021/10/19 01:30:47;;;;;;;26.40;18.90;;;;;;;6.47;87.35;99630.73;235893;1198;22460;-77
2021/10/19 01:35:49;;;;;;;29.70;18.40;;;;;;;6.49;87.17;99623.30;235878;1190;22506;-73
2021/10/19 01:40:53;;;;;;;28.40;18.40;;;;;;;6.51;87.03;99616.22;235891;1197;25009;-73
2021/10/19 01:46:14;;;;;;;34.00;20.20;;;;;;;6.53;87.37;99603.89;236066;1198;24051;-75
2021/10/19 01:51:17;;;;;;;29.00;18.10;;;;;;;6.54;87.27;99596.45;235987;1175;24069;-74
2021/10/19 01:56:20;;;;;;;29.50;17.90;;;;;;;6.56;87.59;99604.73;235953;1197;25360;-74
2021/10/19 02:01:23;;;;;;;27.60;16.20;;;;;;;6.53;87.43;99612.14;236055;1198;22580;-73
2021/10/19 02:06:26;;;;;;;26.90;17.40;;;;;;;6.53;87.49;99608.24;235914;1190;24132;-73
2021/10/19 02:11:28;;;;;;;27.20;16.20;;;;;;;6.49;87.24;99602.23;236093;1190;22492;-74
2021/10/19 02:16:31;;;;;;;23.10;16.30;;;;;;;6.46;87.23;99601.64;235780;1197;22446;-75
2021/10/19 02:21:34;;;;;;;25.10;16.40;;;;;;;6.44;87.03;99598.41;236035;1197;22513;-72
2021/10/19 02:26:37;;;;;;;25.30;16.30;;;;;;;6.41;87.36;99596.44;235922;1190;24047;-73
2021/10/19 02:31:40;;;;;;;24.60;15.90;;;;;;;6.38;87.36;99607.69;236075;1190;24168;-74
2021/10/19 02:36:44;;;;;;;27.60;16.50;;;;;;;6.32;87.58;99609.71;235924;1198;25186;-74
2021/10/19 02:41:46;;;;;;;23.90;15.80;;;;;;;6.27;87.08;99602.45;235923;1190;22434;-75
2021/10/19 02:46:49;;;;;;;24.60;15.50;;;;;;;6.21;87.17;99606.76;235819;1190;24081;-75
2021/10/19 02:51:53;;;;;;;25.00;16.60;;;;;;;6.16;86.95;99594.41;235987;1197;22450;-75
2021/10/19 02:56:56;;;;;;;24.20;16.60;;;;;;;6.18;87.55;99585.58;236061;1197;22483;-74
2021/10/19 03:01:58;;;;;;;23.10;15.80;;;;;;;6.16;87.28;99578.45;236011;1197;25167;-74
2021/10/19 03:07:14;;;;;;;28.80;17.90;;;;;;;6.10;87.54;99574.58;235775;1198;26126;-74
2021/10/19 03:12:24;;;;;;;28.10;17.50;;;;;;;6.03;87.54;99580.09;235888;1190;22434;-76
2021/10/19 03:17:27;;;;;;;27.30;17.70;;;;;;;5.98;87.79;99585.23;236042;1198;22465;-72
2021/10/19 03:22:31;;;;;;;30.40;19.70;;;;;;;5.96;87.88;99585.30;235872;1197;22447;-73
2021/10/19 03:27:34;;;;;;;27.60;17.40;;;;;;;5.93;87.86;99578.52;236095;1197;24015;-73
2021/10/19 03:32:37;;;;;;;25.70;17.80;;;;;;;5.94;87.75;99582.13;236023;1191;25280;-74
2021/10/19 03:37:39;;;;;;;27.70;17.80;;;;;;;5.97;87.90;99581.31;236006;1197;23051;-73
2021/10/19 03:42:47;;;;;;;25.10;16.90;;;;;;;6.01;87.95;99586.97;235981;1190;22435;-72
2021/10/19 03:47:57;;;;;;;26.30;17.30;;;;;;;6.04;88.17;99579.95;236167;1184;24126;-74
2021/10/19 03:53:00;;;;;;;23.50;15.90;;;;;;;6.04;87.89;99582.41;236201;1197;24126;-73
2021/10/19 03:58:02;;;;;;;26.90;17.90;;;;;;;6.04;87.75;99581.96;236116;1197;26126;-72
2021/10/19 04:03:05;;;;;;;26.30;16.50;;;;;;;6.02;87.84;99583.05;236176;1198;22424;-75
2021/10/19 04:08:08;;;;;;;25.40;16.10;;;;;;;5.99;87.83;99575.91;236036;1190;24037;-73
2021/10/19 04:13:11;;;;;;;26.10;16.90;;;;;;;5.96;87.98;99573.95;236053;1190;24130;-77
2021/10/19 04:18:24;;;;;;;24.40;16.30;;;;;;;5.95;87.57;99580.02;236023;1177;22550;-75
2021/10/19 04:23:42;;;;;;;26.70;17.20;;;;;;;5.92;87.75;99577.80;235874;1192;24098;-73
2021/10/19 04:28:45;;;;;;;23.50;16.10;;;;;;;5.89;87.80;99577.13;235979;1197;24056;-76
2021/10/19 04:33:48;;;;;;;24.50;16.70;;;;;;;5.85;87.91;99585.67;235953;1192;22444;-73
2021/10/19 04:38:50;;;;;;;26.30;16.60;;;;;;;5.82;87.76;99582.98;236252;1197;22556;-75
2021/10/19 04:43:53;;;;;;;25.80;16.20;;;;;;;5.81;87.98;99589.24;236006;1197;25132;-74
2021/10/19 04:48:56;;;;;;;26.00;15.50;;;;;;;5.80;87.81;99593.52;235897;1190;24088;-75
2021/10/19 04:53:58;;;;;;;24.90;17.20;;;;;;;5.78;87.77;99593.75;235870;1197;24088;-76
2021/10/19 04:59:02;;;;;;;29.30;18.00;;;;;;;5.75;87.78;99591.04;235972;1198;24129;-75
2021/10/19 05:04:04;;;;;;;31.00;18.90;;;;;;;5.72;87.70;99591.06;235838;1193;22454;-74
2021/10/19 05:09:09;;;;;;;27.40;18.40;;;;;;;5.70;87.70;99584.96;235782;1197;25212;-75
2021/10/19 05:14:18;;;;;;;28.50;16.70;;;;;;;5.71;87.97;99592.71;235867;1198;24099;-73
2021/10/19 05:19:22;;;;;;;27.30;16.20;;;;;;;5.76;88.20;99595.56;236099;1198;22541;-75
2021/10/19 05:24:31;;;;;;;29.60;16.30;;;;;;;5.84;88.27;99596.46;236075;1198;22440;-75
2021/10/19 05:29:34;;;;;;;25.80;17.50;;;;;;;5.95;88.26;99599.54;235732;1191;24038;-75
2021/10/19 05:34:38;;;;;;;30.80;18.70;;;;;;;6.06;88.45;99598.92;236105;1198;24034;-72
2021/10/19 05:39:41;;;;;;;26.40;17.70;;;;;;;6.17;88.31;99595.45;236213;1197;22423;-74
2021/10/19 05:44:44;;;;;;;28.70;17.50;;;;;;;6.33;88.16;99597.68;236415;1197;22455;-75
2021/10/19 05:49:47;;;;;;;31.80;17.70;;;;;;;6.58;88.37;99604.67;236658;1197;24052;-73
2021/10/19 05:55:02;;;;;;;28.20;18.70;;;;;;;6.85;88.52;99613.45;236461;1193;24124;-76
2021/10/19 06:00:25;;;;;;;27.20;17.30;;;;;;;7.13;88.59;99620.20;236500;1197;25120;-75
2021/10/19 06:05:27;;;;;;;27.40;17.70;;;;;;;7.36;87.86;99613.69;236777;1190;24197;-76
2021/10/19 06:10:31;;;;;;;25.30;16.80;;;;;;;7.54;87.41;99621.29;236434;1190;24139;-77
2021/10/19 06:15:35;;;;;;;26.50;16.90;;;;;;;7.70;86.80;99619.83;236779;1190;22694;-76
2021/10/19 06:20:46;;;;;;;26.30;15.20;;;;;;;7.79;86.43;99609.69;236423;1190;24157;-75
2021/10/19 06:25:53;;;;;;;26.70;16.10;;;;;;;7.91;86.10;99598.40;236548;1190;22447;-74
2021/10/19 06:31:03;;;;;;;22.00;16.10;;;;;;;8.02;85.75;99596.45;236566;1197;22456;-72
2021/10/19 06:36:06;;;;;;;24.70;16.40;;;;;;;8.10;85.61;99604.00;236491;1183;23957;-72
2021/10/19 06:41:10;;;;;;;25.70;16.40;;;;;;;8.17;85.36;99606.89;236168;1190;23043;-74
2021/10/19 06:46:23;;;;;;;24.30;15.90;;;;;;;8.26;85.25;99595.88;236229;1190;24123;-72
2021/10/19 06:51:33;;;;;;;23.00;15.50;;;;;;;8.37;85.07;99588.83;236149;1190;25157;-75
2021/10/19 06:56:35;;;;;;;22.50;14.90;;;;;;;8.43;84.62;99589.42;236159;1190;24089;-72
2021/10/19 07:01:38;;;;;;;24.40;15.40;;;;;;;8.45;84.16;99584.64;236132;1190;24066;-73
2021/10/19 07:06:41;;;;;;;23.20;14.10;;;;;;;8.37;83.54;99577.29;236263;1190;24033;-74
2021/10/19 07:11:44;;;;;;;21.30;13.10;;;;;;;8.34;83.28;99580.84;236174;1184;24049;-74
2021/10/19 07:16:51;;;;;;;30.50;14.00;;;;;;;8.39;83.46;99584.89;236083;1190;24047;-72
2021/10/19 07:21:56;;;;;;;18.60;12.80;;;;;;;8.51;83.61;99601.05;236047;1190;22456;-75
2021/10/19 07:26:59;;;;;;;18.30;11.40;;;;;;;8.72;83.23;99613.48;236232;1190;24166;-73
2021/10/19 07:32:02;;;;;;;16.00;11.20;;;;;;;8.95;83.16;99610.79;236097;1190;22460;-72
2021/10/19 07:37:05;;;;;;;14.30;10.10;;;;;;;9.22;82.69;99598.83;236117;1192;25275;-73
2021/10/19 07:42:12;;;;;;;13.30;8.90;;;;;;;9.51;82.05;99600.04;236415;1190;22616;-73
2021/10/19 07:47:15;;;;;;;15.90;9.20;;;;;;;9.78;81.51;99600.84;235973;1190;24047;-74
2021/10/19 07:52:33;;;;;;;13.50;7.50;;;;;;;10.03;80.53;99595.66;236238;1190;25173;-75
2021/10/19 07:57:57;;;;;;;14.90;8.20;;;;;;;10.25;79.98;99591.41;236589;1183;24038;-72
2021/10/19 08:03:20;;;;;;;11.00;6.50;;;;;;;10.46;78.91;99597.52;236144;1198;25049;-75
2021/10/19 08:08:24;;;;;;;9.20;6.60;;;;;;;10.65;77.60;99610.50;236466;1191;22460;-74
2021/10/19 08:13:28;;;;;;;10.90;6.60;;;;;;;10.87;77.52;99607.85;236621;1198;23038;-74
2021/10/19 08:18:31;;;;;;;11.30;6.80;;;;;;;11.11;76.74;99610.17;236679;1198;25262;-74
2021/10/19 08:23:38;;;;;;;10.50;6.50;;;;;;;11.41;75.97;99604.63;236264;1184;22466;-74
2021/10/19 08:28:43;;;;;;;8.80;5.70;;;;;;;11.71;75.74;99606.89;236560;1190;24233;-74
2021/10/19 08:33:47;;;;;;;7.70;5.30;;;;;;;11.97;73.63;99605.70;236348;1193;25186;-75
2021/10/19 08:38:51;;;;;;;7.10;4.90;;;;;;;12.16;73.05;99605.44;236473;1190;24817;-74
2021/10/19 08:43:54;;;;;;;8.00;4.00;;;;;;;12.27;71.70;99602.80;236792;1190;22565;-74
2021/10/19 08:48:57;;;;;;;5.50;3.70;;;;;;;12.34;70.82;99599.84;237001;1190;24043;-73
2021/10/19 08:54:00;;;;;;;5.40;3.80;;;;;;;12.45;70.31;99594.17;237310;1197;24050;-75
2021/10/19 08:59:03;;;;;;;6.70;4.20;;;;;;;12.65;70.06;99595.47;236019;1197;22422;-74
2021/10/19 09:04:07;;;;;;;5.80;3.80;;;;;;;12.91;69.88;99594.43;236096;1193;24043;-72
2021/10/19 09:09:14;;;;;;;4.70;3.90;;;;;;;13.09;69.53;99578.55;236343;1198;25119;-73
2021/10/19 09:14:19;;;;;;;6.30;4.30;;;;;;;13.22;67.63;99567.59;236695;1190;24633;-75
2021/10/19 09:19:23;;;;;;;4.70;3.60;;;;;;;13.32;67.64;99573.73;236223;1197;25123;-74
2021/10/19 09:24:30;;;;;;;7.30;4.10;;;;;;;13.36;67.86;99574.15;236435;1197;25157;-73
2021/10/19 09:29:35;;;;;;;5.00;4.00;;;;;;;13.35;67.67;99586.30;236167;1198;22678;-73
2021/10/19 09:34:45;;;;;;;5.90;3.80;;;;;;;13.29;67.28;99583.66;236186;1190;24050;-73
2021/10/19 09:40:04;;;;;;;5.90;3.70;;;;;;;13.25;67.37;99578.55;236615;1190;22450;-74
2021/10/19 09:45:27;;;;;;;5.20;3.80;;;;;;;13.33;66.30;99571.08;236337;1192;22425;-74
2021/10/19 09:50:29;;;;;;;6.60;4.50;;;;;;;13.41;66.24;99556.85;236406;1174;24059;-73
2021/10/19 09:55:33;;;;;;;6.50;4.60;;;;;;;13.38;65.50;99554.47;236527;1190;24037;-73
2021/10/19 10:00:39;;;;;;;7.90;4.90;;;;;;;13.39;66.04;99555.01;236428;1198;22448;-73
2021/10/19 10:05:43;;;;;;;8.40;5.20;;;;;;;13.47;66.80;99549.04;236375;1193;22430;-74
2021/10/19 10:10:56;;;;;;;5.40;4.10;;;;;;;13.54;65.72;99547.73;236369;1197;23164;-73
2021/10/19 10:16:11;;;;;;;6.00;4.20;;;;;;;13.58;64.23;99547.60;236922;1197;22415;-74
2021/10/19 10:21:16;;;;;;;6.40;4.20;;;;;;;13.56;62.97;99537.94;236278;1197;24078;-74
2021/10/19 10:26:28;;;;;;;7.70;4.70;;;;;;;13.56;64.04;99525.33;236242;1190;25683;-74
2021/10/19 10:31:31;;;;;;;6.30;3.90;;;;;;;13.75;64.04;99527.62;236351;1197;22510;-74
2021/10/19 10:36:45;;;;;;;5.70;3.70;;;;;;;13.94;63.81;99520.94;236058;1198;24062;-76
2021/10/19 10:41:48;;;;;;;8.10;4.60;;;;;;;14.08;63.29;99516.25;236130;1190;24200;-72
2021/10/19 10:47:07;;;;;;;6.10;4.10;;;;;;;14.19;62.39;99524.59;236000;1193;25307;-73
2021/10/19 10:52:29;;;;;;;6.80;4.20;;;;;;;14.27;62.32;99523.82;236103;1197;25160;-75
2021/10/19 10:57:42;;;;;;;6.30;3.90;;;;;;;14.34;61.84;99512.12;236208;1197;22452;-73
2021/10/19 11:03:13;;;;;;;4.80;3.40;;;;;;;14.40;61.02;99503.27;236838;1197;22565;-74
2021/10/19 11:08:37;;;;;;;7.10;4.10;;;;;;;14.60;60.61;99506.20;236253;1198;22437;-75
2021/10/19 11:13:55;;;;;;;5.20;4.10;;;;;;;14.70;58.88;99493.77;236499;1191;24031;-76
2021/10/19 11:19:01;;;;;;;5.10;3.90;;;;;;;14.77;59.07;99494.10;236506;1193;24932;-75
2021/10/19 11:24:06;;;;;;;4.50;3.80;;;;;;;14.77;58.27;99483.29;238065;1197;22453;-74
2021/10/19 11:29:08;;;;;;;4.90;3.90;;;;;;;14.64;58.57;99484.61;237439;1198;24038;-74
2021/10/19 11:34:14;;;;;;;4.70;3.90;;;;;;;14.48;59.24;99463.30;236460;1190;22477;-75
2021/10/19 11:39:16;;;;;;;5.80;4.30;;;;;;;14.47;59.21;99458.11;236393;1197;24219;-75
2021/10/19 11:44:19;;;;;;;5.50;4.20;;;;;;;14.51;58.89;99450.52;236185;1190;25122;-75
2021/10/19 11:49:24;;;;;;;5.80;4.20;;;;;;;14.54;58.73;99443.04;236115;1190;22446;-75
2021/10/19 11:54:31;;;;;;;4.90;4.00;;;;;;;14.63;59.76;99437.93;236358;1190;22470;-73
2021/10/19 11:59:43;;;;;;;;;;;;;;;14.75;59.39;99424.65;236054;1197;24142;-75
2021/10/19 12:04:46;;;;;;;6.90;4.50;;;;;;;14.85;59.74;99421.45;236308;1191;24135;-75
2021/10/19 12:09:49;;;;;;;5.70;4.60;;;;;;;14.91;59.80;99413.86;236314;1190;24116;-75
2021/10/19 12:14:56;;;;;;;5.50;4.20;;;;;;;15.05;59.27;99416.77;236306;1197;25112;-72
2021/10/19 12:20:02;;;;;;;7.30;4.90;;;;;;;15.13;59.52;99412.05;236167;1190;22507;-74
2021/10/19 12:25:07;;;;;;;6.30;4.50;;;;;;;15.26;60.01;99406.45;236119;1190;22400;-76
2021/10/19 12:30:12;;;;;;;6.40;4.50;;;;;;;15.38;58.29;99402.24;236198;1190;22447;-75
2021/10/19 12:35:16;;;;;;;6.70;4.90;;;;;;;15.33;57.24;99399.52;236352;1197;22452;-74
2021/10/19 12:40:20;;;;;;;6.50;5.10;;;;;;;15.31;58.63;99388.25;236299;1197;22489;-73
2021/10/19 12:45:23;;;;;;;6.40;4.60;;;;;;;15.36;58.75;99391.20;236725;1197;24037;-75
2021/10/19 12:50:25;;;;;;;32.70;25.30;;;;;;;15.39;58.83;99384.56;236535;1198;25609;-76
2021/10/19 12:55:28;;;;;;;8.30;5.50;;;;;;;15.42;58.84;99380.70;236909;1194;24089;-74
2021/10/19 13:00:31;;;;;;;6.20;4.50;;;;;;;15.49;59.21;99369.65;236769;1197;22475;-74
2021/10/19 13:05:33;;;;;;;6.10;4.60;;;;;;;15.54;58.46;99359.04;237024;1198;24036;-72
2021/10/19 13:10:36;;;;;;;6.60;4.90;;;;;;;15.56;58.21;99355.96;236586;1193;24129;-72
2021/10/19 13:15:40;;;;;;;6.50;4.70;;;;;;;15.61;58.10;99360.19;236848;1190;22905;-73
2021/10/19 13:21:00;;;;;;;;;;;;;;;15.61;58.03;99353.90;236796;1198;25191;-72
2021/10/19 13:26:05;;;;;;;5.00;3.80;;;;;;;15.62;56.96;99348.71;236864;1190;24178;-71
2021/10/19 13:31:21;;;;;;;6.00;4.30;;;;;;;15.60;57.37;99357.34;236353;1198;22563;-72
2021/10/19 13:36:31;;;;;;;7.20;5.50;;;;;;;15.59;57.94;99351.95;236374;1197;22503;-72
2021/10/19 13:41:33;;;;;;;6.20;4.90;;;;;;;15.54;57.70;99341.77;236297;1197;24594;-73
2021/10/19 13:46:36;;;;;;;6.20;5.00;;;;;;;15.32;57.34;99335.38;236451;1190;24085;-74
2021/10/19 13:51:38;;;;;;;6.80;5.10;;;;;;;15.07;57.77;99338.09;236385;1193;24203;-72
2021/10/19 13:56:42;;;;;;;4.80;4.00;;;;;;;14.83;58.29;99331.77;236447;1198;24013;-74
2021/10/19 14:01:45;;;;;;;6.20;4.70;;;;;;;14.62;58.64;99334.64;236823;1190;22484;-72
2021/10/19 14:06:48;;;;;;;6.30;4.60;;;;;;;14.47;58.38;99333.41;236845;1177;24050;-72
2021/10/19 14:11:52;;;;;;;4.70;3.80;;;;;;;14.37;57.84;99334.73;236436;1197;22427;-72
2021/10/19 14:16:57;;;;;;;7.10;4.60;;;;;;;14.27;58.39;99331.35;236997;1184;24118;-73
2021/10/19 14:22:01;;;;;;;6.10;4.90;;;;;;;14.20;59.15;99324.98;236499;1197;24044;-72
2021/10/19 14:27:04;;;;;;;7.10;4.40;;;;;;;14.13;59.66;99314.39;236650;1198;22777;-73
2021/10/19 14:32:08;;;;;;;4.40;3.80;;;;;;;14.04;59.77;99305.02;236968;1198;22546;-72
2021/10/19 14:37:10;;;;;;;5.40;4.70;;;;;;;13.93;59.70;99303.42;237445;1197;24029;-71
2021/10/19 14:42:13;;;;;;;6.30;4.00;;;;;;;13.87;59.96;99305.81;236665;1190;23961;-71
2021/10/19 14:47:16;;;;;;;6.30;4.60;;;;;;;13.80;60.35;99316.47;236806;1197;25348;-72
2021/10/19 14:52:18;;;;;;;8.20;4.80;;;;;;;13.75;60.61;99319.86;236501;1197;24081;-72
2021/10/19 14:57:21;;;;;;;7.20;5.10;;;;;;;13.67;60.93;99318.98;236373;1190;24076;-73
2021/10/19 15:02:26;;;;;;;5.40;4.10;;;;;;;13.55;61.13;99314.86;236318;1193;25313;-72
2021/10/19 15:07:30;;;;;;;9.10;5.40;;;;;;;13.45;61.71;99311.09;236369;1197;24085;-73
2021/10/19 15:12:33;;;;;;;10.00;6.00;;;;;;;13.32;62.24;99311.61;236518;1197;25060;-73
2021/10/19 15:17:36;;;;;;;9.20;5.60;;;;;;;13.18;62.53;99306.80;236442;1197;24081;-73
2021/10/19 15:22:42;;;;;;;7.10;5.60;;;;;;;13.08;63.10;99302.59;236430;1197;24161;-73
2021/10/19 15:27:47;;;;;;;11.30;7.20;;;;;;;12.97;63.34;99300.86;236320;1197;22691;-74
2021/10/19 15:32:50;;;;;;;9.60;6.50;;;;;;;12.84;63.78;99300.14;236603;1193;25302;-72
2021/10/19 15:37:52;;;;;;;9.10;5.70;;;;;;;12.73;64.04;99301.10;236382;1190;25244;-73
2021/10/19 15:42:55;;;;;;;10.70;6.70;;;;;;;12.62;64.49;99303.27;236261;1190;24103;-73
2021/10/19 15:47:57;;;;;;;12.30;6.30;;;;;;;12.50;64.86;99302.58;236361;1197;25142;-73
2021/10/19 15:53:00;;;;;;;9.50;6.60;;;;;;;12.37;65.17;99301.70;236041;1190;24196;-73
2021/10/19 15:58:03;;;;;;;9.00;6.40;;;;;;;12.24;65.42;99301.80;236245;1198;22473;-73
2021/10/19 16:03:05;;;;;;;11.30;6.70;;;;;;;12.10;66.02;99302.45;236153;1197;25098;-73
2021/10/19 16:08:08;;;;;;;10.50;6.60;;;;;;;11.99;66.19;99309.38;236312;1197;24031;-74
2021/10/19 16:13:10;;;;;;;9.00;6.00;;;;;;;11.91;66.69;99311.21;236125;1197;24212;-73
2021/10/19 16:18:14;;;;;;;9.20;6.40;;;;;;;11.82;66.72;99319.54;236301;1197;24138;-71
2021/10/19 16:23:18;;;;;;;10.40;7.30;;;;;;;11.76;67.03;99319.98;236333;1198;24156;-73
2021/10/19 16:28:22;;;;;;;9.30;6.40;;;;;;;11.69;67.04;99323.05;236115;1190;24010;-72
2021/10/19 16:33:24;;;;;;;8.90;6.40;;;;;;;11.61;67.40;99324.08;236250;1197;22439;-73
2021/10/19 16:38:47;;;;;;;11.20;7.10;;;;;;;11.51;67.58;99324.80;236108;1198;22442;-72
2021/10/19 16:43:50;;;;;;;11.60;7.80;;;;;;;11.42;67.98;99318.07;236472;1191;24377;-75
2021/10/19 16:48:54;;;;;;;10.80;7.50;;;;;;;11.37;68.04;99320.84;236295;1197;24043;-73
2021/10/19 16:53:58;;;;;;;9.30;7.00;;;;;;;11.33;68.19;99317.27;236290;1197;22471;-73
2021/10/19 16:59:01;;;;;;;8.40;6.50;;;;;;;11.32;68.25;99319.48;236079;1196;22427;-74
2021/10/19 17:04:04;;;;;;;13.60;9.50;;;;;;;11.28;68.53;99316.67;235959;1193;24250;-73
2021/10/19 17:09:07;;;;;;;11.00;7.30;;;;;;;11.25;68.61;99316.80;236129;1197;24060;-73
2021/10/19 17:14:09;;;;;;;12.10;8.70;;;;;;;11.23;68.87;99313.48;236272;1197;22440;-74
2021/10/19 17:19:12;;;;;;;14.30;8.50;;;;;;;11.23;69.26;99312.13;236364;1190;24212;-71
2021/10/19 17:24:15;;;;;;;16.60;9.70;;;;;;;11.24;69.11;99311.11;236095;1197;22540;-73
2021/10/19 17:29:21;;;;;;;14.90;8.80;;;;;;;11.23;69.20;99307.15;236261;1198;22531;-73
2021/10/19 17:34:25;;;;;;;15.30;10.10;;;;;;;11.22;69.10;99302.86;236376;1194;22593;-75
2021/10/19 17:39:27;;;;;;;15.30;9.80;;;;;;;11.22;69.09;99299.82;236212;1198;22562;-73
2021/10/19 17:44:29;;;;;;;14.40;9.10;;;;;;;11.21;69.28;99296.45;236117;1197;25197;-71
2021/10/19 17:49:32;;;;;;;16.20;10.30;;;;;;;11.18;69.47;99298.18;236160;1183;22513;-71
2021/10/19 17:54:34;;;;;;;15.30;9.20;;;;;;;11.15;69.53;99295.15;236192;1197;22439;-72
2021/10/19 17:59:37;;;;;;;15.50;9.60;;;;;;;11.09;69.59;99295.84;236049;1190;22469;-73
2021/10/19 18:04:39;;;;;;;12.70;7.80;;;;;;;11.03;69.59;99296.14;236280;1197;24501;-71
2021/10/19 18:09:43;;;;;;;11.90;7.40;;;;;;;10.99;70.04;99293.22;236145;1191;22418;-73
2021/10/19 18:14:47;;;;;;;14.00;9.20;;;;;;;10.97;70.06;99290.71;236000;1198;24054;-73
2021/10/19 18:19:50;;;;;;;15.90;8.80;;;;;;;10.91;70.10;99290.04;236160;1197;22445;-73
2021/10/19 18:24:53;;;;;;;15.50;9.50;;;;;;;10.88;70.18;99284.23;236206;1197;24187;-73
2021/10/19 18:29:55;;;;;;;12.40;8.70;;;;;;;10.84;70.29;99279.52;236350;1197;24114;-73
2021/10/19 18:34:58;;;;;;;12.00;8.10;;;;;;;10.80;70.33;99274.30;236050;1198;24050;-71
2021/10/19 18:40:02;;;;;;;12.70;8.30;;;;;;;10.76;70.60;99268.60;236235;1197;24423;-73
2021/10/19 18:45:06;;;;;;;13.40;8.00;;;;;;;10.74;70.65;99266.08;236343;1197;26196;-73
2021/10/19 18:50:13;;;;;;;15.40;8.90;;;;;;;10.72;70.64;99263.52;236203;1190;24872;-74
2021/10/19 18:55:18;;;;;;;13.50;7.70;;;;;;;10.69;70.58;99263.60;236162;1190;22994;-74
2021/10/19 19:00:24;;;;;;;12.20;7.30;;;;;;;10.67;70.60;99266.17;236203;1197;26209;-73
2021/10/19 19:05:31;;;;;;;9.90;6.70;;;;;;;10.65;70.60;99270.53;236069;1190;24191;-72
2021/10/19 19:10:34;;;;;;;11.20;7.20;;;;;;;10.60;70.58;99264.67;236209;1193;22451;-73
2021/10/19 19:15:38;;;;;;;12.80;8.10;;;;;;;10.54;70.63;99268.29;236140;1190;25061;-72
2021/10/19 19:20:41;;;;;;;11.40;7.40;;;;;;;10.48;70.57;99271.79;236217;1197;25319;-72
2021/10/19 19:25:44;;;;;;;10.40;7.30;;;;;;;10.44;70.73;99264.73;236086;1197;24160;-72
2021/10/19 19:30:46;;;;;;;10.70;7.60;;;;;;;10.43;70.79;99265.11;236140;1197;25267;-73
2021/10/19 19:35:49;;;;;;;11.30;7.00;;;;;;;10.41;70.73;99265.35;236210;1197;22546;-71
2021/10/19 19:40:52;;;;;;;12.20;7.20;;;;;;;10.39;70.67;99266.53;236199;1197;24193;-73
2021/10/19 19:45:55;;;;;;;13.60;7.40;;;;;;;10.36;70.70;99258.62;236107;1197;25052;-72
2021/10/19 19:50:58;;;;;;;12.60;7.40;;;;;;;10.35;70.57;99256.11;236122;1197;22445;-71
2021/10/19 19:56:03;;;;;;;11.30;7.70;;;;;;;10.34;70.81;99249.24;236300;1197;24044;-71
2021/10/19 20:01:07;;;;;;;11.10;7.20;;;;;;;10.30;70.78;99242.45;236431;1190;22481;-74
2021/10/19 20:06:10;;;;;;;13.00;8.00;;;;;;;10.26;70.59;99242.83;235900;1198;22440;-72
2021/10/19 20:11:12;;;;;;;12.50;7.20;;;;;;;10.22;70.76;99239.00;236158;1197;24178;-71
2021/10/19 20:16:18;;;;;;;13.50;8.20;;;;;;;10.16;70.80;99232.70;236045;1190;24215;-74
2021/10/19 20:21:21;;;;;;;12.00;7.90;;;;;;;10.11;70.97;99231.11;236012;1177;25221;-72
2021/10/19 20:26:24;;;;;;;12.20;8.10;;;;;;;10.06;71.06;99226.09;236019;1197;24050;-72
2021/10/19 20:31:30;;;;;;;14.00;7.80;;;;;;;10.03;71.17;99225.31;236130;1198;24002;-72
2021/10/19 20:36:33;;;;;;;15.50;8.30;;;;;;;10.00;71.21;99223.88;236361;1197;24576;-73
2021/10/19 20:41:36;;;;;;;14.10;7.60;;;;;;;9.97;71.35;99222.55;236077;1198;23983;-71
2021/10/19 20:46:39;;;;;;;12.70;7.50;;;;;;;9.95;71.36;99221.00;236124;1190;22457;-73
2021/10/19 20:51:42;;;;;;;15.10;8.10;;;;;;;9.92;71.45;99224.17;236072;1197;22434;-72
2021/10/19 20:56:48;;;;;;;12.00;7.90;;;;;;;9.90;71.61;99223.42;236053;1197;22546;-72
2021/10/19 21:01:51;;;;;;;13.60;7.90;;;;;;;9.87;71.70;99220.55;235883;1197;22443;-72
2021/10/19 21:06:55;;;;;;;12.00;7.50;;;;;;;9.89;71.71;99212.61;235956;1197;22555;-74
2021/10/19 21:12:03;;;;;;;12.10;7.10;;;;;;;9.91;71.73;99209.89;235980;1197;25157;-71
2021/10/19 21:17:07;;;;;;;13.70;7.80;;;;;;;9.93;71.59;99205.27;235954;1197;24041;-73
2021/10/19 21:22:10;;;;;;;14.50;7.90;;;;;;;9.93;71.59;99212.49;235994;1198;24057;-73
2021/10/19 21:27:13;;;;;;;12.50;7.40;;;;;;;9.92;71.54;99200.13;235957;1189;22394;-71
2021/10/19 21:32:16;;;;;;;12.90;7.90;;;;;;;9.93;71.61;99199.75;236339;1197;24037;-71
2021/10/19 21:37:18;;;;;;;12.70;7.30;;;;;;;9.93;71.51;99195.15;235990;1197;24053;-72
2021/10/19 21:42:21;;;;;;;12.10;7.40;;;;;;;9.92;71.63;99188.95;235860;1190;24047;-74
2021/10/19 21:47:23;;;;;;;11.10;7.40;;;;;;;9.95;71.68;99185.99;235939;1194;24190;-72
2021/10/19 21:52:26;;;;;;;12.40;6.70;;;;;;;9.99;71.67;99177.85;235927;1197;25197;-73
2021/10/19 21:57:42;;;;;;;9.60;6.40;;;;;;;10.02;71.51;99172.67;236099;1190;25186;-73
2021/10/19 22:03:11;;;;;;;8.60;5.80;;;;;;;10.07;71.56;99164.90;236001;1198;24085;-73
2021/10/19 22:08:24;;;;;;;11.20;6.00;;;;;;;10.12;71.34;99148.13;235945;1193;22447;-71
2021/10/19 22:13:28;;;;;;;8.90;5.40;;;;;;;10.15;71.31;99131.24;235846;1190;24082;-74
2021/10/19 22:18:32;;;;;;;9.50;5.90;;;;;;;10.12;71.29;99126.11;235945;1198;24018;-73
2021/10/19 22:28:49;;;;;;;16.60;9.70;;;;;;;9.99;71.43;99112.86;235796;1198;25587;-73
2021/10/19 22:33:54;;;;;;;15.90;9.30;;;;;;;9.91;71.59;99104.88;236095;1190;22439;-72
2021/10/19 22:38:58;;;;;;;16.50;9.80;;;;;;;9.83;71.73;99094.20;235667;1198;25013;-73
2021/10/19 22:44:02;;;;;;;19.10;11.60;;;;;;;9.77;71.82;99094.83;235944;1198;22514;-73
2021/10/19 22:49:07;;;;;;;18.30;10.60;;;;;;;9.70;71.97;99093.46;236112;1190;25013;-73
2021/10/19 22:54:10;;;;;;;20.10;10.90;;;;;;;9.65;72.14;99089.36;236011;1198;23989;-72
2021/10/19 22:59:13;;;;;;;16.80;10.90;;;;;;;9.60;72.48;99080.95;235967;1190;24785;-73
2021/10/19 23:04:15;;;;;;;19.10;11.00;;;;;;;9.54;72.48;99069.56;236124;1190;24187;-71
2021/10/19 23:09:18;;;;;;;19.80;11.40;;;;;;;9.54;72.63;99069.14;236279;1190;24050;-73
2021/10/19 23:14:20;;;;;;;18.90;10.80;;;;;;;9.52;72.76;99065.99;236034;1190;24130;-73
2021/10/19 23:19:24;;;;;;;19.20;10.70;;;;;;;9.55;72.88;99071.80;236296;1196;24059;-73
2021/10/19 23:24:27;;;;;;;16.30;9.30;;;;;;;9.60;72.94;99071.62;235879;1197;24459;-71
2021/10/19 23:29:29;;;;;;;15.40;8.60;;;;;;;9.65;72.97;99070.27;235867;1190;24044;-71
2021/10/19 23:34:42;;;;;;;15.30;7.90;;;;;;;9.73;73.04;99066.23;236073;1190;24105;-72
2021/10/19 23:39:54;;;;;;;11.50;6.30;;;;;;;9.86;73.12;99047.59;235992;1190;24054;-72